Flight Track Log - Related Links

Times and Time Zones

All times are in EDT time to prevent confusion due to time zone crossing. See the RLI723 flight status page for this flight to view local times or setup timezone preferences in your user account.

Time Position Orientation Groundspeed Altitude Reporting Facility
EDT Latitude Longitude Course Direction KTS MPH feet Rate Location/Type
Mon 06:48:39 AM 41.4661 -71.3986 257° West 187 215 4,500  Level Boston Center
Mon 06:49:39 AM 41.4583 -71.4650 261° West 188 216 4,500  Level Boston Center
Mon 06:50:40 AM 41.4464 -71.5372 258° West 189 217 4,500  Level Boston Center
Mon 06:51:47 AM 41.4344 -71.6094 258° West 188 216 4,500  Level Boston Center
Mon 06:52:47 AM 41.4225 -71.6789 257° West 187 215 4,500 -50 Level Boston Center
Mon 06:53:00 AM 41.4982 -71.4425 257° West  Level Estimated
Mon 06:53:48 AM 41.4103 -71.7453 256° West 187 215 4,400  Level Boston Center
Mon 06:54:49 AM 41.4025 -71.8147 262° West 187 215 4,400  Level Boston Center
Mon 06:55:49 AM 41.3861 -71.8867 253° West 187 215 4,400 47 Level Boston Center
Mon 06:56:56 AM 41.3761 -71.9614 260° West 188 216 4,500  Climbing Boston Center
Mon 06:57:57 AM 41.3639 -72.0253 256° West 186 214 4,400 -52 Descending Boston Center
Mon 06:58:51 AM 41.3536 -72.0889 258° West 193 222 4,400  Level Boston Center
Mon 06:59:52 AM 41.3414 -72.1608 257° West 191 220 4,400  Level Boston Center
Mon 07:00:53 AM 41.3311 -72.2244 258° West 187 215 4,400 50 Level Boston Center
Mon 07:01:53 AM 41.3167 -72.2908 254° West 185 213 4,500 100 Climbing Boston Center
Mon 07:03:00 AM 41.3026 -72.3408 249° West  Level FlightAware Approximate
Mon 07:10:00 AM 41.2383 -72.6638 255° West  Level FlightAware Approximate
Mon 07:11:00 AM 41.2291 -72.7100 255° West  Level FlightAware Approximate
Mon 07:12:00 AM 41.2200 -72.7561 255° West  Level FlightAware Approximate
Mon 07:13:00 AM 41.2108 -72.8022 255° West  Level FlightAware Approximate
Mon 07:14:00 AM 41.2016 -72.8483 255° West  Level FlightAware Approximate
Mon 07:15:00 AM 41.1923 -72.8944 255° West  Level FlightAware Approximate
Mon 07:16:00 AM 41.1831 -72.9405 255° West  Level FlightAware Approximate
Mon 07:17:00 AM 41.1739 -72.9865 255° West  Level FlightAware Approximate
Mon 07:18:00 AM 41.1646 -73.0325 255° West  Level FlightAware Approximate
Mon 07:19:00 AM 41.1553 -73.0786 255° West  Level FlightAware Approximate
Mon 07:20:00 AM 41.1460 -73.1246 255° West  Level FlightAware Approximate
Mon 07:21:00 AM 41.1366 -73.1706 255° West  Level FlightAware Approximate
Mon 07:22:00 AM 41.1273 -73.2166 255° West  Level FlightAware Approximate
Mon 07:23:00 AM 41.1179 -73.2626 255° West  Level FlightAware Approximate
Mon 07:24:00 AM 41.1085 -73.3085 255° West  Level FlightAware Approximate
Mon 07:25:00 AM 41.0992 -73.3545 257° West  Level FlightAware Approximate
Mon 07:26:00 AM 41.0911 -73.4009 257° West  Level FlightAware Approximate
Mon 07:27:00 AM 41.0829 -73.4473 257° West  Level FlightAware Approximate
Mon 07:28:00 AM 41.0748 -73.4936 257° West  Level FlightAware Approximate
Mon 07:29:00 AM 41.0666 -73.5400 257° West  Level FlightAware Approximate
Mon 07:30:00 AM 41.0584 -73.5863 257° West  Level FlightAware Approximate
Mon 07:31:00 AM 41.0501 -73.6326 257° West  Level FlightAware Approximate
Mon 07:32:00 AM 41.0611 -73.6778 288° West  Level FlightAware Approximate
Mon 07:33:00 AM 41.0667 -73.7000 288° West  Level FlightAware Approximate
Mon 07:34:00 AM 41.0669 -73.7076 288° West  Level Estimated
Mon 07:35:00 AM 41.0667 -73.7000 288° West  Level FlightAware Approximate
Mon 07:36:00 AM 41.0669 -73.7076 288° West  Level Estimated
Mon 07:37:00 AM 41.0667 -73.7000 288° West  Level FlightAware Approximate
Mon 07:38:00 AM 41.0669 -73.7076 288° West  Level Estimated
Mon 07:39:00 AM 41.0667 -73.7000 288° West  Level FlightAware Approximate
Mon 07:40:00 AM 41.0669 -73.7076 288° West  Level Estimated
Mon 07:41:00 AM 41.0667 -73.7000 288° West  Level FlightAware Approximate
Mon 07:42:00 AM 41.0669 -73.7076 288° West  Level Estimated
Mon 07:43:00 AM 41.0667 -73.7000 288° West  Level FlightAware Approximate
Mon 07:44:00 AM 41.0669 -73.7076 288° West  Level Estimated
Mon 07:45:00 AM 41.0667 -73.7000 288° West  Level FlightAware Approximate
Mon 07:46:00 AM 41.0669 -73.7076 288° West  Level Estimated
Mon 07:47:00 AM 41.0667 -73.7000 288° West  Level FlightAware Approximate
Mon 07:48:00 AM 41.0669 -73.7076 288° West  Level Estimated
Mon 07:49:00 AM 41.0667 -73.7000 288° West  Level FlightAware Approximate
Mon 07:50:00 AM 41.0669 -73.7076 288° West  Level Estimated
Mon 07:51:00 AM 41.0667 -73.7000 288° West  Level FlightAware Approximate
Mon 07:52:00 AM 41.0669 -73.7076 288° West  Level Estimated
Mon 07:53:00 AM 41.0667 -73.7000 288° West  Level FlightAware Approximate
Mon 07:54:00 AM 41.0669 -73.7076 288° West  Level Estimated

Login

Don't have an account? Register now (free) for customized features, flight alerts, and more!